Garrett, Illinois
Current Conditions -  °F | °C
As of 9:53 AM on Friday 21 Nov 2014 (Local Time) from KCMI Reporting Station
Clear Clear  
Wind Chill: 12°   Ceiling: Unl
Heat Index: 24°   Visibility: 10mi
Dew Point: 10°   Wind: 13mph
Humidity: 55%   Direction: 120°ESE
Pressure: 30.48"   Gusts: NA
Location:  39.82°N, 88.4452°W
Report Text: KCMI 211553Z 12011KT 10SM CLR M04/M12 A3048 RMK AO2 SLP333 T10441122 $
Loading
Personal Weather Stations






























Interactive Weather Map New forecast layout! Learn more

10-Day Weather Forecast

Advertisements
Track Severe Weather on mobile